Time;durP1;ratioP1;P1;durP2;ratioP2;P2;SDS_P1;SDS_P2;PMS_P1;PMS_P2;Temp;Humidity;BMP_temperature;BMP_pressure;BME280_temperature;BME280_humidity;BME280_pressure;Samples;Min_cycle;Max_cycle;Signal;HPM_P1;HPM_P2
2023/08/21 00:00:43;;;;;;;13.47;12.10;;;;;;;;;;10438388;28;20052;-82
2023/08/21 00:05:43;;;;;;;12.68;11.48;;;;;;;;;;10428944;28;20053;-81
2023/08/21 00:10:44;;;;;;;14.60;13.00;;;;;;;;;;10431776;28;20269;-80
2023/08/21 00:15:44;;;;;;;14.53;13.13;;;;;;;;;;10427197;28;20391;-81
2023/08/21 00:20:44;;;;;;;15.77;14.13;;;;;;;;;;10432453;28;20194;-81
2023/08/21 00:25:46;;;;;;;15.18;12.98;;;;;;;;;;10407893;28;20114;-80
2023/08/21 00:30:46;;;;;;;16.30;13.70;;;;;;;;;;10434102;28;20053;-79
2023/08/21 00:35:47;;;;;;;15.13;13.53;;;;;;;;;;10410243;28;20053;-79
2023/08/21 00:40:47;;;;;;;15.30;13.57;;;;;;;;;;10415367;28;20056;-81
2023/08/21 00:45:49;;;;;;;;;;;;;;;;;;10433481;28;20493;-81
2023/08/21 00:50:49;;;;;;;15.23;13.63;;;;;;;;;;10431097;28;20020;-81
2023/08/21 00:55:51;;;;;;;15.27;13.77;;;;;;;;;;10414484;28;20055;-78
2023/08/21 01:00:51;;;;;;;16.03;14.33;;;;;;;;;;10439097;28;20283;-79
2023/08/21 01:05:54;;;;;;;14.57;13.13;;;;;;;;;;10410997;28;20052;-79
2023/08/21 01:11:10;;;;;;;15.98;14.20;;;;;;;;;;10439344;28;20092;-81
2023/08/21 01:16:12;;;;;;;16.77;15.00;;;;;;;;;;10446996;28;20056;-83
2023/08/21 01:21:12;;;;;;;14.73;13.23;;;;;;;;;;10458270;28;20513;-80
2023/08/21 01:26:13;;;;;;;16.03;14.43;;;;;;;;;;10417191;28;20041;-80
2023/08/21 01:31:31;;;;;;;17.53;15.00;;;;;;;;;;10425681;28;20104;-80
2023/08/21 01:36:31;;;;;;;16.35;14.75;;;;;;;;;;10431949;28;20037;-80
2023/08/21 01:41:32;;;;;;;17.25;14.88;;;;;;;;;;10409447;28;20050;-80
2023/08/21 01:46:32;;;;;;;20.20;15.97;;;;;;;;;;10431495;28;20037;-80
2023/08/21 01:51:32;;;;;;;16.17;14.40;;;;;;;;;;10413973;28;20053;-81
2023/08/21 01:56:36;;;;;;;17.40;15.60;;;;;;;;;;10430466;28;20045;-80
2023/08/21 02:01:36;;;;;;;16.58;14.88;;;;;;;;;;10393653;28;20645;-79
2023/08/21 02:06:37;;;;;;;18.53;15.60;;;;;;;;;;10435255;28;20068;-83
2023/08/21 02:11:37;;;;;;;16.23;14.47;;;;;;;;;;10432839;28;21068;-80
2023/08/21 02:16:38;;;;;;;18.83;16.88;;;;;;;;;;10445729;28;20149;-80
2023/08/21 02:21:38;;;;;;;18.75;16.40;;;;;;;;;;10396021;28;20441;-81
2023/08/21 02:26:40;;;;;;;18.40;16.50;;;;;;;;;;10414293;28;20563;-80
2023/08/21 02:31:40;;;;;;;22.17;19.25;;;;;;;;;;10409120;28;20064;-80
2023/08/21 02:36:40;;;;;;;22.87;19.07;;;;;;;;;;10404898;28;20046;-80
2023/08/21 02:41:41;;;;;;;24.30;19.70;;;;;;;;;;10406047;28;20286;-80
2023/08/21 02:46:41;;;;;;;21.95;18.23;;;;;;;;;;10422254;28;20152;-78
2023/08/21 02:51:42;;;;;;;21.70;18.77;;;;;;;;;;10414975;28;20107;-78
2023/08/21 02:56:42;;;;;;;20.75;18.52;;;;;;;;;;10411486;28;20053;-79
2023/08/21 03:01:43;;;;;;;21.70;19.23;;;;;;;;;;10414237;28;20045;-77
2023/08/21 03:06:43;;;;;;;23.10;18.98;;;;;;;;;;10424933;28;20044;-81
2023/08/21 03:11:46;;;;;;;23.43;18.57;;;;;;;;;;10415573;28;20059;-78
2023/08/21 03:16:46;;;;;;;23.45;19.65;;;;;;;;;;10424872;28;20053;-79
2023/08/21 03:21:47;;;;;;;24.63;19.80;;;;;;;;;;10433204;28;20044;-81
2023/08/21 03:26:47;;;;;;;23.92;19.02;;;;;;;;;;10405923;28;20307;-79
2023/08/21 03:31:49;;;;;;;25.17;20.67;;;;;;;;;;10430197;28;20064;-79
2023/08/21 03:36:50;;;;;;;24.83;20.58;;;;;;;;;;10429769;28;20715;-80
2023/08/21 03:41:52;;;;;;;24.77;19.70;;;;;;;;;;10390118;28;20756;-80
2023/08/21 03:46:52;;;;;;;22.73;19.10;;;;;;;;;;10427910;28;20041;-79
2023/08/21 03:51:55;;;;;;;23.52;20.55;;;;;;;;;;10412474;28;20143;-79
2023/08/21 03:56:56;;;;;;;23.48;19.15;;;;;;;;;;10409607;28;20062;-79
2023/08/21 04:01:56;;;;;;;21.52;19.10;;;;;;;;;;10417364;28;20053;-82
2023/08/21 04:06:56;;;;;;;23.53;19.30;;;;;;;;;;10388632;28;20049;-82
2023/08/21 04:11:58;;;;;;;22.70;18.77;;;;;;;;;;10432679;28;20087;-82
2023/08/21 04:16:59;;;;;;;22.77;19.77;;;;;;;;;;10442832;28;20480;-79
2023/08/21 04:21:59;;;;;;;21.52;18.88;;;;;;;;;;10425716;28;20770;-79
2023/08/21 04:26:59;;;;;;;21.50;18.67;;;;;;;;;;10390081;28;20068;-78
2023/08/21 04:32:00;;;;;;;20.07;17.93;;;;;;;;;;10426449;28;20061;-76
2023/08/21 04:37:00;;;;;;;24.05;20.30;;;;;;;;;;10407617;28;20053;-79
2023/08/21 04:42:01;;;;;;;22.08;19.52;;;;;;;;;;10404200;28;20052;-77
2023/08/21 04:47:19;;;;;;;23.65;19.00;;;;;;;;;;10388507;28;20052;-76
2023/08/21 04:52:20;;;;;;;25.75;20.60;;;;;;;;;;10400800;28;20056;-78
2023/08/21 04:57:21;;;;;;;25.38;20.88;;;;;;;;;;10403922;28;20057;-75
2023/08/21 05:02:24;;;;;;;26.40;20.83;;;;;;;;;;10425729;28;20477;-79
2023/08/21 05:07:27;;;;;;;26.08;20.77;;;;;;;;;;10405701;28;20079;-76
2023/08/21 05:12:28;;;;;;;28.15;22.38;;;;;;;;;;10413700;28;20056;-80
2023/08/21 05:17:29;;;;;;;27.23;21.10;;;;;;;;;;10417476;28;20057;-76
2023/08/21 05:22:30;;;;;;;27.20;21.83;;;;;;;;;;10413029;28;20045;-76
2023/08/21 05:27:30;;;;;;;25.92;21.38;;;;;;;;;;10411816;28;20053;-76
2023/08/21 05:32:30;;;;;;;26.93;21.87;;;;;;;;;;10411949;28;20466;-76
2023/08/21 05:37:31;;;;;;;27.97;22.80;;;;;;;;;;10412277;28;20078;-77
2023/08/21 05:42:31;;;;;;;27.20;21.75;;;;;;;;;;10431169;28;21066;-76
2023/08/21 05:47:32;;;;;;;28.27;23.17;;;;;;;;;;10425890;28;20037;-77
2023/08/21 05:52:32;;;;;;;28.13;22.77;;;;;;;;;;10421980;28;20137;-77
2023/08/21 05:57:32;;;;;;;29.47;22.23;;;;;;;;;;10387677;28;20128;-75
2023/08/21 06:02:33;;;;;;;27.17;22.10;;;;;;;;;;10411377;28;20059;-80
2023/08/21 06:07:35;;;;;;;26.95;21.17;;;;;;;;;;10417108;28;20400;-79
2023/08/21 06:12:36;;;;;;;26.70;21.63;;;;;;;;;;10433451;28;20084;-81
2023/08/21 06:17:37;;;;;;;28.03;20.83;;;;;;;;;;10409871;28;20834;-82
2023/08/21 06:22:37;;;;;;;22.43;19.23;;;;;;;;;;10419482;28;20045;-81
2023/08/21 06:27:38;;;;;;;23.88;19.73;;;;;;;;;;10434208;28;20052;-82
2023/08/21 06:32:38;;;;;;;21.30;18.70;;;;;;;;;;10439015;28;20060;-81
2023/08/21 06:37:38;;;;;;;23.30;18.60;;;;;;;;;;10442396;28;20100;-81
2023/08/21 06:42:39;;;;;;;21.93;18.73;;;;;;;;;;10423937;28;20566;-84
2023/08/21 06:47:40;;;;;;;21.88;18.98;;;;;;;;;;10427428;28;20127;-82
2023/08/21 06:52:41;;;;;;;22.40;19.20;;;;;;;;;;10420738;28;20068;-82
2023/08/21 06:57:41;;;;;;;21.50;18.52;;;;;;;;;;10447639;28;20029;-77
2023/08/21 07:02:42;;;;;;;23.02;19.83;;;;;;;;;;10444992;28;20044;-81
2023/08/21 07:07:42;;;;;;;21.60;18.63;;;;;;;;;;10437495;28;20045;-82
2023/08/21 07:12:42;;;;;;;24.60;18.53;;;;;;;;;;10446780;28;20052;-82
2023/08/21 07:17:43;;;;;;;19.98;17.67;;;;;;;;;;10424796;28;20041;-81
2023/08/21 07:22:43;;;;;;;20.63;17.13;;;;;;;;;;10428599;28;20049;-81
2023/08/21 07:27:44;;;;;;;20.43;17.13;;;;;;;;;;10408472;28;20142;-81
2023/08/21 07:32:44;;;;;;;19.27;17.13;;;;;;;;;;10450572;28;20918;-80
2023/08/21 07:37:46;;;;;;;17.48;15.77;;;;;;;;;;10435496;28;20053;-80
2023/08/21 07:42:46;;;;;;;17.17;15.33;;;;;;;;;;10429322;28;20049;-81
2023/08/21 07:47:46;;;;;;;14.83;13.20;;;;;;;;;;10426253;28;20044;-82
2023/08/21 07:52:47;;;;;;;15.27;13.70;;;;;;;;;;10419055;28;20049;-81
2023/08/21 07:57:48;;;;;;;15.37;13.77;;;;;;;;;;10409044;28;20064;-80
2023/08/21 08:02:48;;;;;;;22.03;19.57;;;;;;;;;;10428141;28;20047;-81
2023/08/21 08:07:48;;;;;;;19.10;15.90;;;;;;;;;;10431930;28;20042;-82
2023/08/21 08:12:49;;;;;;;18.20;16.30;;;;;;;;;;10427064;28;20057;-82
2023/08/21 08:17:53;;;;;;;17.97;16.10;;;;;;;;;;10428013;28;20392;-80
2023/08/21 08:22:53;;;;;;;18.95;16.90;;;;;;;;;;10430036;28;20053;-82
2023/08/21 08:27:53;;;;;;;28.77;25.67;;;;;;;;;;10415119;28;20451;-82
2023/08/21 08:32:54;;;;;;;19.53;16.83;;;;;;;;;;10425043;28;20096;-82
2023/08/21 08:37:54;;;;;;;18.13;16.20;;;;;;;;;;10448576;28;20069;-81
2023/08/21 08:42:56;;;;;;;18.65;16.67;;;;;;;;;;10407223;28;20119;-82
2023/08/21 08:47:59;;;;;;;18.60;16.60;;;;;;;;;;10428379;28;20045;-83
2023/08/21 08:52:59;;;;;;;18.08;16.17;;;;;;;;;;10440768;28;20060;-81
2023/08/21 08:58:00;;;;;;;16.83;15.03;;;;;;;;;;10442939;28;20048;-84
2023/08/21 09:03:00;;;;;;;18.67;15.20;;;;;;;;;;10427482;28;20109;-82
2023/08/21 09:08:14;;;;;;;16.63;15.03;;;;;;;;;;10417387;28;20482;-82
2023/08/21 09:13:18;;;;;;;15.55;13.48;;;;;;;;;;10428959;28;20056;-82
2023/08/21 09:18:18;;;;;;;12.98;11.68;;;;;;;;;;10417555;28;20033;-82
2023/08/21 09:23:19;;;;;;;14.13;12.67;;;;;;;;;;10430830;28;20045;-82
2023/08/21 09:28:20;;;;;;;15.13;13.63;;;;;;;;;;10435973;28;20053;-83
2023/08/21 09:33:22;;;;;;;15.57;13.40;;;;;;;;;;10430483;28;20054;-82
2023/08/21 09:38:22;;;;;;;;;;;;;;;;;;10432475;28;20158;-82
2023/08/21 09:43:23;;;;;;;13.07;11.63;;;;;;;;;;10433615;28;20354;-83
2023/08/21 09:48:26;;;;;;;12.10;10.73;;;;;;;;;;10436899;28;20053;-82
2023/08/21 09:53:27;;;;;;;12.98;11.60;;;;;;;;;;10434287;28;20446;-81
2023/08/21 09:58:27;;;;;;;14.33;12.83;;;;;;;;;;10434438;28;20056;-83
2023/08/21 10:03:28;;;;;;;13.07;11.63;;;;;;;;;;10442347;28;20059;-83
2023/08/21 10:08:28;;;;;;;12.52;10.98;;;;;;;;;;10434057;28;20049;-83
2023/08/21 10:13:29;;;;;;;10.97;9.87;;;;;;;;;;10414021;28;20083;-82
2023/08/21 10:18:30;;;;;;;9.93;9.03;;;;;;;;;;10433197;28;21150;-81
2023/08/21 10:23:31;;;;;;;26.25;23.63;;;;;;;;;;10445459;28;20122;-83
2023/08/21 10:28:41;;;;;;;10.33;9.40;;;;;;;;;;10439924;28;20033;-81
2023/08/21 10:33:45;;;;;;;10.05;9.05;;;;;;;;;;10434169;28;20065;-84
2023/08/21 10:38:58;;;;;;;10.00;8.98;;;;;;;;;;10434189;28;20069;-82
2023/08/21 10:44:00;;;;;;;9.13;8.32;;;;;;;;;;10437975;28;20059;-84
2023/08/21 10:49:00;;;;;;;9.63;8.63;;;;;;;;;;10437276;28;20053;-85
2023/08/21 10:54:10;;;;;;;11.17;8.83;;;;;;;;;;10441175;28;20406;-82
2023/08/21 10:59:10;;;;;;;8.95;8.02;;;;;;;;;;10480055;28;21034;-81
2023/08/21 11:04:14;;;;;;;8.47;7.67;;;;;;;;;;10462850;28;20037;-83
2023/08/21 11:09:16;;;;;;;9.95;8.02;;;;;;;;;;10444524;28;20053;-81
2023/08/21 11:14:16;;;;;;;7.55;6.60;;;;;;;;;;10466370;28;20047;-81
2023/08/21 11:19:17;;;;;;;8.37;7.57;;;;;;;;;;10476492;28;20041;-81
2023/08/21 11:24:17;;;;;;;10.03;7.13;;;;;;;;;;10465627;28;20069;-83
2023/08/21 11:29:17;;;;;;;7.67;6.87;;;;;;;;;;10424589;28;20404;-82
2023/08/21 11:34:18;;;;;;;;;;;;;;;;;;10443312;28;20147;-82
2023/08/21 11:39:18;;;;;;;8.57;7.78;;;;;;;;;;10441797;28;19917;-80
2023/08/21 11:44:18;;;;;;;8.50;7.60;;;;;;;;;;10440908;28;20041;-81
2023/08/21 11:49:19;;;;;;;8.17;6.63;;;;;;;;;;10433257;28;20103;-82
2023/08/21 11:54:19;;;;;;;8.88;6.57;;;;;;;;;;10434061;28;20048;-81
2023/08/21 11:59:19;;;;;;;;;;;;;;;;;;10431498;28;20049;-82
2023/08/21 12:04:20;;;;;;;8.52;6.40;;;;;;;;;;10428329;28;19916;-81
2023/08/21 12:09:20;;;;;;;;;;;;;;;;;;10432039;28;20712;-83
2023/08/21 12:14:20;;;;;;;7.32;6.63;;;;;;;;;;10429409;28;20090;-83
2023/08/21 12:19:21;;;;;;;;;;;;;;;;;;10424704;28;20506;-85
2023/08/21 12:24:21;;;;;;;7.90;6.35;;;;;;;;;;10444890;28;19955;-80
2023/08/21 12:29:22;;;;;;;6.97;6.27;;;;;;;;;;10596386;22;20053;-80
2023/08/21 12:34:22;;;;;;;6.17;5.50;;;;;;;;;;10459734;28;20037;-88
2023/08/21 12:39:22;;;;;;;6.53;5.60;;;;;;;;;;10453593;28;20071;-83
2023/08/21 12:49:40;;;;;;;6.10;5.50;;;;;;;;;;10440161;28;20306;-85
2023/08/21 12:54:40;;;;;;;8.10;6.60;;;;;;;;;;10428525;28;20041;-83
2023/08/21 13:05:13;;;;;;;6.15;5.47;;;;;;;;;;10439710;28;20046;-83
2023/08/21 13:10:13;;;;;;;6.43;5.37;;;;;;;;;;10413705;28;20046;-82
2023/08/21 13:15:13;;;;;;;5.80;5.20;;;;;;;;;;10425823;28;20038;-84
2023/08/21 13:20:14;;;;;;;6.77;5.27;;;;;;;;;;10389218;28;20324;-83
2023/08/21 13:25:15;;;;;;;6.70;5.27;;;;;;;;;;10404142;28;20041;-83
2023/08/21 13:30:15;;;;;;;6.03;5.38;;;;;;;;;;10388640;28;20100;-83
2023/08/21 13:35:16;;;;;;;6.82;5.75;;;;;;;;;;10423216;28;20069;-82
2023/08/21 13:40:17;;;;;;;6.60;5.78;;;;;;;;;;10456711;28;20044;-85
2023/08/21 13:45:18;;;;;;;5.90;5.30;;;;;;;;;;10447825;28;20693;-83
2023/08/21 13:50:19;;;;;;;6.32;5.32;;;;;;;;;;10438524;28;20052;-83
2023/08/21 13:55:20;;;;;;;5.40;4.90;;;;;;;;;;10453232;28;20136;-82
2023/08/21 14:00:20;;;;;;;6.43;5.85;;;;;;;;;;10433371;28;20049;-83
2023/08/21 14:05:21;;;;;;;7.53;5.60;;;;;;;;;;10436263;28;20051;-82
2023/08/21 14:10:22;;;;;;;7.03;5.40;;;;;;;;;;10448251;28;20464;-82
2023/08/21 14:15:23;;;;;;;7.25;5.68;;;;;;;;;;10415997;28;20052;-83
2023/08/21 14:20:23;;;;;;;;;;;;;;;;;;10440211;28;20052;-83
2023/08/21 14:25:25;;;;;;;5.93;5.32;;;;;;;;;;10426312;28;19935;-86
2023/08/21 14:30:25;;;;;;;6.00;5.40;;;;;;;;;;10435283;28;20049;-84
2023/08/21 14:35:25;;;;;;;7.13;5.72;;;;;;;;;;10426019;28;20369;-81
2023/08/21 14:40:26;;;;;;;6.77;5.40;;;;;;;;;;10433388;28;20107;-81
2023/08/21 14:45:26;;;;;;;6.23;5.47;;;;;;;;;;10406672;28;20069;-83
2023/08/21 14:50:27;;;;;;;7.40;5.30;;;;;;;;;;10420632;28;20140;-85
2023/08/21 14:55:27;;;;;;;6.68;5.03;;;;;;;;;;10412851;28;20070;-83
2023/08/21 15:00:28;;;;;;;6.40;5.80;;;;;;;;;;10447650;28;20049;-86
2023/08/21 15:05:28;;;;;;;9.33;5.50;;;;;;;;;;10445028;28;20136;-84
2023/08/21 15:10:28;;;;;;;6.47;5.60;;;;;;;;;;10424095;28;20048;-83
2023/08/21 15:15:29;;;;;;;8.77;5.30;;;;;;;;;;10400831;28;20065;-81
2023/08/21 15:20:29;;;;;;;9.65;5.85;;;;;;;;;;10433709;28;20047;-80
2023/08/21 15:25:30;;;;;;;6.63;5.93;;;;;;;;;;10443064;28;20076;-83
